Time;durP1;ratioP1;P1;durP2;ratioP2;P2;SDS_P1;SDS_P2;PMS_P1;PMS_P2;Temp;Humidity;BMP_temperature;BMP_pressure;BME280_temperature;BME280_humidity;BME280_pressure;Samples;Min_cycle;Max_cycle;Signal;HPM_P1;HPM_P2
2021/04/16 00:01:38;;;;;;;10.75;5.38;;;2.20;99.90;;;;;;4863106;29;20091;-77
2021/04/16 00:04:04;;;;;;;6.30;3.85;;;2.10;99.90;;;;;;4863976;29;20045;-77
2021/04/16 00:06:30;;;;;;;6.10;4.00;;;2.10;99.90;;;;;;4863623;29;20085;-77
2021/04/16 00:08:56;;;;;;;6.07;3.90;;;2.10;99.90;;;;;;4863480;29;20041;-77
2021/04/16 00:11:25;;;;;;;5.55;3.47;;;2.10;99.90;;;;;;4863077;29;20082;-78
2021/04/16 00:13:52;;;;;;;9.93;3.80;;;1.80;99.90;;;;;;4862677;29;20073;-77
2021/04/16 00:16:21;;;;;;;5.20;3.80;;;1.90;99.90;;;;;;4862950;29;20049;-77
2021/04/16 00:18:48;;;;;;;5.68;3.60;;;1.90;99.90;;;;;;4863550;29;20490;-77
2021/04/16 00:21:14;;;;;;;6.95;3.40;;;1.90;99.90;;;;;;4863186;29;20046;-77
2021/04/16 00:23:41;;;;;;;5.60;3.42;;;1.80;99.90;;;;;;4863197;29;20033;-77
2021/04/16 00:26:08;;;;;;;6.32;3.05;;;1.80;99.90;;;;;;4863612;29;20041;-78
2021/04/16 00:28:34;;;;;;;4.97;3.38;;;1.80;99.90;;;;;;4862692;29;20129;-77
2021/04/16 00:31:11;;;;;;;6.32;4.07;;;1.90;99.90;;;;;;4863018;29;20056;-77
2021/04/16 00:33:37;;;;;;;4.88;3.55;;;1.80;99.90;;;;;;4863054;29;20041;-77
2021/04/16 00:36:03;;;;;;;5.82;3.55;;;1.60;99.90;;;;;;4862681;29;20056;-77
2021/04/16 00:38:29;;;;;;;11.13;3.40;;;1.60;99.90;;;;;;4862759;29;20388;-77
2021/04/16 00:41:00;;;;;;;6.28;3.72;;;1.60;99.90;;;;;;4862608;29;20129;-77
2021/04/16 00:43:28;;;;;;;5.63;3.60;;;1.60;99.90;;;;;;4862396;29;20047;-77
2021/04/16 00:46:04;;;;;;;5.63;3.15;;;1.70;99.90;;;;;;4862833;29;20074;-77
2021/04/16 00:48:35;;;;;;;7.00;3.45;;;1.70;99.90;;;;;;4862749;29;20045;-77
2021/04/16 00:51:03;;;;;;;;;;;1.50;99.90;;;;;;4862806;29;20048;-77
2021/04/16 00:53:29;;;;;;;7.85;3.80;;;1.50;99.90;;;;;;4862266;29;20388;-77
2021/04/16 00:55:56;;;;;;;6.25;4.38;;;1.60;99.90;;;;;;4862583;29;20049;-77
2021/04/16 00:58:28;;;;;;;6.88;4.50;;;1.50;99.90;;;;;;4862390;29;20049;-78
2021/04/16 01:00:55;;;;;;;8.18;3.75;;;1.50;99.90;;;;;;4862452;29;20067;-77
2021/04/16 01:03:21;;;;;;;8.77;4.78;;;1.30;99.90;;;;;;4862540;29;20136;-77
2021/04/16 01:05:48;;;;;;;6.85;3.42;;;1.30;99.90;;;;;;4863328;29;20049;-77
2021/04/16 01:08:14;;;;;;;6.78;3.72;;;1.40;99.90;;;;;;4861416;29;20549;-78
2021/04/16 01:10:41;;;;;;;8.38;4.53;;;1.40;99.90;;;;;;4863050;29;20049;-76
2021/04/16 01:13:08;;;;;;;7.30;4.30;;;1.30;99.90;;;;;;4862400;29;20181;-77
2021/04/16 01:15:38;;;;;;;7.97;4.60;;;1.20;99.90;;;;;;4862409;29;20136;-77
2021/04/16 01:18:18;;;;;;;8.00;4.53;;;1.30;99.90;;;;;;4862692;29;20093;-78
2021/04/16 01:20:47;;;;;;;11.30;4.47;;;1.30;99.90;;;;;;4862483;29;20052;-77
2021/04/16 01:23:22;;;;;;;7.53;4.20;;;1.30;99.90;;;;;;4862500;29;20046;-78
2021/04/16 01:25:48;;;;;;;7.43;4.15;;;1.20;99.90;;;;;;4861735;29;20045;-77
2021/04/16 01:28:15;;;;;;;6.95;3.60;;;1.20;99.90;;;;;;4862072;29;20033;-77
2021/04/16 01:30:58;;;;;;;9.63;4.07;;;1.30;99.90;;;;;;4862752;29;20128;-76
2021/04/16 01:33:30;;;;;;;7.70;4.13;;;1.20;99.90;;;;;;4862721;29;20041;-78
2021/04/16 01:35:56;;;;;;;8.77;4.53;;;1.10;99.90;;;;;;4862716;29;20049;-78
2021/04/16 01:38:23;;;;;;;6.80;3.78;;;1.00;99.90;;;;;;4862181;29;20073;-77
2021/04/16 01:40:49;;;;;;;7.55;3.30;;;1.00;99.90;;;;;;4862679;29;20084;-77
2021/04/16 01:43:18;;;;;;;6.85;3.15;;;0.90;99.90;;;;;;4862244;29;20103;-78
2021/04/16 01:45:44;;;;;;;8.35;4.03;;;0.90;99.90;;;;;;4863112;29;20205;-77
2021/04/16 01:48:10;;;;;;;9.90;3.85;;;1.00;99.90;;;;;;4861921;29;20081;-78
2021/04/16 01:50:36;;;;;;;5.93;3.95;;;1.10;99.90;;;;;;4862219;29;20128;-77
2021/04/16 01:53:03;;;;;;;8.77;3.70;;;1.00;99.90;;;;;;4862309;29;20409;-77
2021/04/16 01:55:29;;;;;;;6.93;3.63;;;1.00;99.90;;;;;;4862427;29;20049;-77
2021/04/16 01:57:55;;;;;;;5.13;3.65;;;0.90;99.90;;;;;;4862031;29;20068;-77
2021/04/16 02:00:27;;;;;;;6.93;3.65;;;0.80;99.90;;;;;;4861774;29;20088;-78
2021/04/16 02:02:52;;;;;;;5.22;3.53;;;0.70;99.90;;;;;;4861938;29;20042;-78
2021/04/16 02:05:18;;;;;;;6.22;3.33;;;0.70;99.90;;;;;;4862219;29;20141;-78
2021/04/16 02:07:44;;;;;;;6.32;3.33;;;0.80;99.90;;;;;;4861572;29;20490;-78
2021/04/16 02:10:12;;;;;;;6.90;3.63;;;0.60;99.90;;;;;;4862190;29;20048;-77
2021/04/16 02:12:38;;;;;;;8.80;3.70;;;0.70;99.90;;;;;;4861830;29;20041;-77
2021/04/16 02:15:05;;;;;;;6.95;3.97;;;0.80;99.90;;;;;;4861370;29;20123;-78
2021/04/16 02:17:31;;;;;;;8.07;4.03;;;0.70;99.90;;;;;;4861793;29;20124;-78
2021/04/16 02:19:59;;;;;;;4.10;2.95;;;0.70;99.90;;;;;;4862086;29;20120;-77
2021/04/16 02:22:28;;;;;;;6.60;4.03;;;0.70;99.90;;;;;;4861749;29;20041;-78
2021/04/16 02:24:54;;;;;;;6.97;3.65;;;0.70;99.90;;;;;;4860395;29;20454;-77
2021/04/16 02:27:24;;;;;;;9.00;4.28;;;0.70;99.90;;;;;;4861782;29;20033;-77
2021/04/16 02:29:50;;;;;;;6.10;3.58;;;0.60;99.90;;;;;;4862154;29;20486;-77
2021/04/16 02:32:17;;;;;;;6.90;3.85;;;0.50;99.90;;;;;;4861393;29;20044;-77
2021/04/16 02:34:43;;;;;;;5.53;3.30;;;0.60;99.90;;;;;;4861305;29;20536;-77
2021/04/16 02:37:14;;;;;;;5.15;3.30;;;0.60;99.90;;;;;;4863032;29;20086;-76
2021/04/16 02:39:40;;;;;;;;;;;0.50;99.90;;;;;;4865842;29;20057;-76
2021/04/16 02:42:07;;;;;;;8.00;4.13;;;0.60;99.90;;;;;;4864958;29;19912;-78
2021/04/16 02:44:34;;;;;;;5.78;3.72;;;0.40;99.90;;;;;;4865010;29;20052;-77
2021/04/16 02:47:00;;;;;;;9.52;4.10;;;0.40;99.90;;;;;;4864949;29;20101;-78
2021/04/16 02:49:26;;;;;;;6.28;3.22;;;0.30;99.90;;;;;;4864889;29;20045;-77
2021/04/16 02:51:52;;;;;;;5.43;3.28;;;0.20;99.90;;;;;;4864682;29;20057;-78
2021/04/16 02:54:18;;;;;;;5.10;3.20;;;0.10;99.90;;;;;;4864413;29;20060;-77
2021/04/16 02:56:45;;;;;;;4.70;3.35;;;0.10;99.90;;;;;;4864678;29;20128;-77
2021/04/16 02:59:11;;;;;;;4.75;3.40;;;0.10;99.90;;;;;;4864838;29;20049;-78
2021/04/16 03:01:37;;;;;;;4.90;2.97;;;0.20;99.90;;;;;;4865174;29;20117;-77
2021/04/16 03:04:04;;;;;;;6.88;3.90;;;0.30;99.90;;;;;;4865119;29;20041;-77
2021/04/16 03:06:30;;;;;;;5.03;3.90;;;0.30;99.90;;;;;;4864784;29;20042;-76
2021/04/16 03:08:58;;;;;;;9.90;4.10;;;0.30;99.90;;;;;;4865360;29;20059;-78
2021/04/16 03:11:26;;;;;;;9.88;4.10;;;0.30;99.90;;;;;;4864666;29;20069;-77
2021/04/16 03:13:52;;;;;;;4.63;3.22;;;0.40;99.90;;;;;;4864162;29;20061;-77
2021/04/16 03:16:20;;;;;;;6.95;3.58;;;0.20;99.90;;;;;;4864743;29;20045;-78
2021/04/16 03:18:46;;;;;;;6.07;3.55;;;0.20;99.90;;;;;;4864610;29;20033;-77
2021/04/16 03:21:12;;;;;;;6.15;3.47;;;0.10;99.90;;;;;;4864537;29;20105;-76
2021/04/16 03:23:38;;;;;;;5.38;3.80;;;0.10;99.90;;;;;;4864233;29;20037;-77
2021/04/16 03:26:04;;;;;;;6.93;3.70;;;0.20;99.90;;;;;;4864198;29;20041;-76
2021/04/16 03:28:30;;;;;;;7.45;4.13;;;0.10;99.90;;;;;;4864423;29;20045;-78
2021/04/16 03:30:56;;;;;;;5.95;3.55;;;0.10;99.90;;;;;;4864146;29;20040;-77
2021/04/16 03:33:22;;;;;;;4.80;3.30;;;0.20;99.90;;;;;;4864340;29;20049;-78
2021/04/16 03:35:48;;;;;;;4.38;3.58;;;0.20;99.90;;;;;;4864319;29;20189;-77
2021/04/16 03:38:14;;;;;;;5.03;3.10;;;0.10;99.90;;;;;;4864028;29;20556;-78
2021/04/16 03:40:40;;;;;;;6.28;2.85;;;0.10;99.90;;;;;;4864023;29;20037;-77
2021/04/16 03:43:06;;;;;;;4.97;3.40;;;0.10;99.90;;;;;;4863916;29;20053;-77
2021/04/16 03:45:32;;;;;;;6.53;3.83;;;0.00;99.90;;;;;;4864070;29;20049;-77
2021/04/16 03:47:58;;;;;;;6.53;3.50;;;0.10;99.90;;;;;;4863454;29;20038;-76
2021/04/16 03:50:28;;;;;;;7.15;3.33;;;0.10;99.90;;;;;;4864365;29;20116;-77
2021/04/16 03:52:54;;;;;;;4.65;3.25;;;0.00;99.90;;;;;;4864631;29;20125;-78
2021/04/16 03:55:24;;;;;;;4.13;3.50;;;-0.10;99.90;;;;;;4863897;29;20045;-77
2021/04/16 03:57:50;;;;;;;7.32;3.33;;;-0.20;99.90;;;;;;4863636;29;20562;-77
2021/04/16 04:00:23;;;;;;;4.82;2.95;;;-0.10;99.90;;;;;;4863248;29;20455;-77
2021/04/16 04:02:49;;;;;;;8.25;4.22;;;0.00;99.90;;;;;;4862999;29;20128;-78
2021/04/16 04:05:16;;;;;;;8.32;5.00;;;-0.20;99.90;;;;;;4863252;29;20124;-77
2021/04/16 04:07:42;;;;;;;3.60;2.95;;;-0.10;99.90;;;;;;4863415;29;20105;-77
2021/04/16 04:10:09;;;;;;;3.78;2.83;;;-0.20;99.90;;;;;;4863483;29;20045;-78
2021/04/16 04:12:34;;;;;;;4.13;3.10;;;-0.30;99.90;;;;;;4863342;29;20048;-77
2021/04/16 04:15:00;;;;;;;6.85;3.00;;;-0.40;99.90;;;;;;4862834;29;20057;-77
2021/04/16 04:17:29;;;;;;;6.90;3.45;;;-0.20;99.90;;;;;;4863276;29;20045;-78
2021/04/16 04:19:55;;;;;;;5.30;2.95;;;-0.40;99.90;;;;;;4863832;29;20101;-77
2021/04/16 04:22:21;;;;;;;5.53;2.88;;;-0.40;99.90;;;;;;4863167;29;20053;-77
2021/04/16 04:24:47;;;;;;;6.72;3.85;;;-0.30;99.90;;;;;;4863155;29;20049;-78
2021/04/16 04:27:14;;;;;;;11.05;5.65;;;-0.20;99.90;;;;;;4862754;29;20076;-78
2021/04/16 04:29:40;;;;;;;7.07;3.95;;;-0.10;99.90;;;;;;4863256;29;20059;-77
2021/04/16 04:32:07;;;;;;;6.78;3.40;;;-0.10;99.90;;;;;;4863051;29;20042;-77
2021/04/16 04:34:34;;;;;;;5.45;3.38;;;-0.20;99.90;;;;;;4862938;29;20094;-77
2021/04/16 04:37:01;;;;;;;11.43;4.63;;;-0.20;99.90;;;;;;4862899;29;20037;-76
2021/04/16 04:39:30;;;;;;;8.63;3.63;;;-0.10;99.90;;;;;;4862623;29;20038;-77
2021/04/16 04:41:56;;;;;;;5.18;3.00;;;-0.20;99.90;;;;;;4862228;29;20065;-77
2021/04/16 04:44:23;;;;;;;8.48;4.00;;;-0.20;99.90;;;;;;4861447;29;20208;-77
2021/04/16 04:46:49;;;;;;;6.53;3.78;;;0.10;99.90;;;;;;4861775;29;20048;-77
2021/04/16 04:49:19;;;;;;;5.07;3.45;;;0.10;99.90;;;;;;4861870;29;20128;-76
2021/04/16 04:51:47;;;;;;;5.07;2.88;;;-0.10;99.90;;;;;;4862452;29;20193;-77
2021/04/16 04:54:12;;;;;;;5.57;2.78;;;-0.10;99.90;;;;;;4863128;29;20129;-77
2021/04/16 04:56:39;;;;;;;5.40;3.50;;;0.00;99.90;;;;;;4862714;29;20067;-77
2021/04/16 04:59:05;;;;;;;15.88;7.10;;;0.30;99.90;;;;;;4862914;29;20098;-77
2021/04/16 05:01:31;;;;;;;9.02;4.90;;;0.10;99.90;;;;;;4861897;29;20062;-77
2021/04/16 05:03:57;;;;;;;7.63;5.15;;;0.20;99.90;;;;;;4861585;29;20063;-77
2021/04/16 05:06:23;;;;;;;8.23;5.22;;;0.20;99.90;;;;;;4861018;29;20492;-77
2021/04/16 05:08:49;;;;;;;15.45;7.28;;;0.20;99.90;;;;;;4860987;29;20050;-77
2021/04/16 05:11:15;;;;;;;16.95;8.77;;;0.40;99.90;;;;;;4861539;29;20080;-77
2021/04/16 05:13:41;;;;;;;7.47;3.67;;;0.40;99.90;;;;;;4861574;29;20037;-76
2021/04/16 05:16:10;;;;;;;5.13;3.17;;;0.60;99.90;;;;;;4860685;29;20113;-77
2021/04/16 05:18:37;;;;;;;8.30;4.22;;;0.50;99.90;;;;;;4858759;29;20492;-78
2021/04/16 05:21:04;;;;;;;6.00;2.97;;;0.60;99.90;;;;;;4857781;29;20410;-77
2021/04/16 05:23:30;;;;;;;7.82;2.80;;;0.60;99.90;;;;;;4860586;29;20512;-77
2021/04/16 05:25:56;;;;;;;8.75;2.97;;;0.50;99.90;;;;;;4861565;29;20116;-78
2021/04/16 05:28:22;;;;;;;4.60;2.70;;;0.50;99.90;;;;;;4861384;29;20148;-77
2021/04/16 05:30:48;;;;;;;18.35;7.38;;;0.40;99.90;;;;;;4860783;29;20390;-76
2021/04/16 05:33:14;;;;;;;5.32;2.80;;;0.60;99.90;;;;;;4860492;29;20464;-78
2021/04/16 05:35:39;;;;;;;7.85;2.90;;;0.60;99.90;;;;;;4861315;29;20482;-76
2021/04/16 05:38:05;;;;;;;6.60;2.50;;;0.70;99.90;;;;;;4860802;29;20045;-75
2021/04/16 05:40:31;;;;;;;6.57;2.67;;;0.80;99.90;;;;;;4861165;29;20069;-77
2021/04/16 05:42:57;;;;;;;5.20;3.33;;;1.00;99.90;;;;;;4859364;29;20465;-75
2021/04/16 05:45:23;;;;;;;5.10;2.65;;;1.30;99.90;;;;;;4860618;29;20124;-77
2021/04/16 05:47:49;;;;;;;4.50;2.67;;;1.10;99.90;;;;;;4861287;29;20101;-77
2021/04/16 05:50:18;;;;;;;4.63;2.35;;;1.20;99.90;;;;;;4862119;29;20084;-77
2021/04/16 05:52:44;;;;;;;11.65;3.03;;;1.40;99.90;;;;;;4862235;29;20074;-77
2021/04/16 05:55:11;;;;;;;7.40;2.90;;;1.30;99.90;;;;;;4861898;29;20049;-78
2021/04/16 05:57:36;;;;;;;6.72;2.90;;;1.50;99.90;;;;;;4862098;29;20038;-77
2021/04/16 06:00:06;;;;;;;3.58;2.42;;;1.70;99.90;;;;;;4861554;29;20042;-77
2021/04/16 06:02:35;;;;;;;5.30;2.70;;;1.90;99.90;;;;;;4861828;29;20053;-78
2021/04/16 06:05:08;;;;;;;3.03;2.58;;;2.10;99.90;;;;;;4861819;29;20046;-77
2021/04/16 06:07:35;;;;;;;3.03;2.42;;;2.60;99.90;;;;;;4861585;29;20101;-77
2021/04/16 06:10:01;;;;;;;4.40;2.80;;;2.60;99.90;;;;;;4861452;29;20037;-77
2021/04/16 06:12:27;;;;;;;3.90;2.53;;;4.20;99.90;;;;;;4863742;29;20084;-76
2021/04/16 06:14:53;;;;;;;5.75;2.67;;;5.40;99.90;;;;;;4864820;29;20076;-78
2021/04/16 06:17:19;;;;;;;6.95;2.85;;;4.30;99.90;;;;;;4865314;29;20045;-77
2021/04/16 06:19:48;;;;;;;5.95;2.88;;;3.90;99.90;;;;;;4865348;29;20068;-77
2021/04/16 06:22:16;;;;;;;8.15;5.30;;;5.90;99.90;;;;;;4864971;29;20076;-76
2021/04/16 06:24:42;;;;;;;3.67;2.33;;;5.70;98.60;;;;;;4865034;29;20053;-77
2021/04/16 06:27:09;;;;;;;5.43;3.33;;;7.10;95.40;;;;;;4860958;29;20450;-75
2021/04/16 06:29:34;;;;;;;4.18;2.72;;;8.30;90.20;;;;;;4857744;29;20096;-75
2021/04/16 06:32:01;;;;;;;5.15;2.60;;;8.40;85.20;;;;;;4863738;29;20521;-74
2021/04/16 06:34:27;;;;;;;5.40;3.40;;;7.80;77.10;;;;;;4863835;29;20066;-74
2021/04/16 06:36:53;;;;;;;5.53;2.95;;;7.10;84.50;;;;;;4861818;29;20180;-74
2021/04/16 06:39:19;;;;;;;6.90;3.17;;;6.40;85.70;;;;;;4862673;29;20116;-76
2021/04/16 06:41:47;;;;;;;3.92;3.10;;;6.60;89.20;;;;;;4857924;29;20124;-76
2021/04/16 06:44:29;;;;;;;4.35;3.05;;;7.20;84.20;;;;;;4863063;29;20045;-75
2021/04/16 06:47:16;;;;;;;6.82;3.38;;;8.60;71.30;;;;;;4858227;29;20041;-75
2021/04/16 06:49:57;;;;;;;6.88;3.90;;;9.50;68.20;;;;;;4860935;29;20085;-73
2021/04/16 06:52:47;;;;;;;5.72;3.50;;;8.00;69.80;;;;;;4846847;29;20049;-75
2021/04/16 06:55:31;;;;;;;6.55;3.45;;;7.20;77.30;;;;;;4863825;29;20085;-75
2021/04/16 06:58:08;;;;;;;5.25;4.05;;;6.50;79.90;;;;;;4862982;29;20067;-75
2021/04/16 07:01:20;;;;;;;13.50;4.43;;;6.10;83.60;;;;;;4862202;29;20061;-76
2021/04/16 07:04:07;;;;;;;5.45;3.75;;;6.40;85.50;;;;;;4845540;29;20038;-75
2021/04/16 07:06:33;;;;;;;6.78;3.83;;;6.20;84.90;;;;;;4847111;29;20108;-75
2021/04/16 07:08:59;;;;;;;5.95;3.67;;;5.80;85.50;;;;;;4862186;29;20128;-75
2021/04/16 07:11:30;;;;;;;6.68;3.58;;;5.50;84.40;;;;;;4862880;29;20554;-75
2021/04/16 07:13:58;;;;;;;7.10;3.22;;;5.40;88.10;;;;;;4863624;29;20041;-75
2021/04/16 07:16:24;;;;;;;7.68;3.55;;;5.40;89.60;;;;;;4863202;29;20053;-76
2021/04/16 07:18:56;;;;;;;6.15;3.47;;;5.60;91.40;;;;;;4863039;29;20055;-75
2021/04/16 07:21:23;;;;;;;6.88;3.40;;;5.90;86.50;;;;;;4862898;29;20052;-76
2021/04/16 07:24:00;;;;;;;5.70;3.15;;;6.10;84.90;;;;;;4862350;29;20129;-76
2021/04/16 07:26:39;;;;;;;6.43;3.50;;;6.00;83.20;;;;;;4863357;29;20037;-76
2021/04/16 07:29:06;;;;;;;4.90;3.13;;;6.10;83.10;;;;;;4862870;29;20049;-76
2021/04/16 07:31:49;;;;;;;7.88;3.20;;;5.70;86.00;;;;;;4862836;29;20049;-76
2021/04/16 07:34:36;;;;;;;4.90;2.92;;;6.00;88.30;;;;;;4862946;29;20405;-76
2021/04/16 07:37:11;;;;;;;4.88;2.97;;;6.20;86.00;;;;;;4863038;29;20076;-76
2021/04/16 07:39:44;;;;;;;4.63;3.25;;;5.90;89.00;;;;;;4863163;29;20507;-75
2021/04/16 07:42:10;;;;;;;5.97;3.35;;;5.80;88.00;;;;;;4863657;29;20049;-76
2021/04/16 07:45:11;;;;;;;4.57;3.17;;;5.60;88.50;;;;;;4860806;29;20055;-78
2021/04/16 07:47:39;;;;;;;6.35;2.80;;;5.70;87.10;;;;;;4862403;29;20056;-76
2021/04/16 07:50:09;;;;;;;5.45;3.65;;;6.00;89.70;;;;;;4862155;29;20041;-76
2021/04/16 07:52:39;;;;;;;4.78;3.10;;;6.00;90.30;;;;;;4862446;29;20049;-75
2021/04/16 07:55:11;;;;;;;13.80;3.05;;;6.20;91.00;;;;;;4861991;29;20121;-76
2021/04/16 07:57:39;;;;;;;9.20;3.15;;;6.30;87.60;;;;;;4862143;29;20049;-76
2021/04/16 08:00:26;;;;;;;20.30;3.25;;;6.40;87.00;;;;;;4862527;29;20057;-76
2021/04/16 08:03:02;;;;;;;18.17;3.95;;;6.70;86.50;;;;;;4845058;29;20045;-75
2021/04/16 08:05:39;;;;;;;18.23;4.53;;;6.80;83.20;;;;;;4864456;29;20132;-75
2021/04/16 08:08:33;;;;;;;14.80;4.00;;;6.90;78.30;;;;;;4870086;29;20049;-75
2021/04/16 08:11:05;;;;;;;9.50;3.67;;;7.00;78.90;;;;;;4861832;29;20037;-76
2021/04/16 08:13:41;;;;;;;12.73;3.95;;;7.00;80.50;;;;;;4861998;29;20536;-77
2021/04/16 08:16:19;;;;;;;10.82;3.97;;;7.10;78.20;;;;;;4861765;29;20057;-76
2021/04/16 08:19:01;;;;;;;9.45;4.82;;;7.30;76.90;;;;;;4861517;29;20037;-76
2021/04/16 08:21:31;;;;;;;9.10;4.72;;;7.50;73.60;;;;;;4826871;29;20502;-76
2021/04/16 08:24:21;;;;;;;9.43;4.13;;;7.80;71.00;;;;;;4859913;29;20068;-77
2021/04/16 08:27:05;;;;;;;9.70;3.78;;;8.10;66.80;;;;;;4861535;29;20102;-77
2021/04/16 08:29:41;;;;;;;6.57;3.90;;;8.20;65.00;;;;;;4861130;29;20037;-74
2021/04/16 08:32:30;;;;;;;7.28;4.50;;;8.30;63.60;;;;;;4861165;29;20064;-74
2021/04/16 08:35:12;;;;;;;10.77;4.50;;;8.40;58.00;;;;;;4844334;29;20084;-74
2021/04/16 08:37:46;;;;;;;7.15;3.90;;;8.50;58.90;;;;;;4861128;29;20566;-75
2021/04/16 08:40:32;;;;;;;8.70;4.68;;;8.70;57.80;;;;;;4861420;29;20132;-77
2021/04/16 08:42:59;;;;;;;8.32;4.70;;;8.90;58.60;;;;;;4860063;29;20067;-77
2021/04/16 08:45:28;;;;;;;13.85;7.60;;;9.30;56.20;;;;;;4861346;29;20041;-78
2021/04/16 08:48:01;;;;;;;12.05;6.57;;;9.60;53.90;;;;;;4860345;29;20042;-75
2021/04/16 08:50:33;;;;;;;26.20;13.88;;;10.10;52.10;;;;;;4861173;29;20084;-76
2021/04/16 08:53:04;;;;;;;16.60;9.02;;;10.40;49.70;;;;;;4857262;29;20132;-77
2021/04/16 08:55:36;;;;;;;16.60;9.55;;;10.50;49.90;;;;;;4857074;29;20053;-76
2021/04/16 08:58:05;;;;;;;20.08;12.05;;;10.70;46.60;;;;;;4855164;29;20073;-77
2021/04/16 09:00:48;;;;;;;14.00;9.55;;;10.70;46.20;;;;;;4859624;29;20448;-76
2021/04/16 09:03:21;;;;;;;9.05;5.45;;;10.80;45.10;;;;;;4855847;29;20037;-77
2021/04/16 09:06:03;;;;;;;8.90;4.88;;;11.10;46.50;;;;;;4860480;29;20073;-76
2021/04/16 09:08:42;;;;;;;10.18;7.30;;;11.20;43.80;;;;;;4859570;29;20057;-76
2021/04/16 09:11:10;;;;;;;8.88;5.50;;;11.00;43.80;;;;;;4860636;29;20124;-76
2021/04/16 09:13:39;;;;;;;8.55;6.20;;;11.10;45.60;;;;;;4860887;29;20497;-76
2021/04/16 09:16:37;;;;;;;10.57;5.45;;;11.30;47.60;;;;;;4860672;29;20128;-77
2021/04/16 09:19:24;;;;;;;8.25;4.82;;;10.90;44.50;;;;;;4859091;29;20049;-76
2021/04/16 09:22:02;;;;;;;7.65;4.30;;;11.00;44.50;;;;;;4860483;29;20041;-77
2021/04/16 09:24:50;;;;;;;7.95;4.13;;;11.00;45.60;;;;;;4860234;29;20049;-78
2021/04/16 09:27:23;;;;;;;6.47;4.25;;;11.00;45.70;;;;;;4860762;29;20509;-77
2021/04/16 09:29:49;;;;;;;5.47;3.95;;;11.30;42.80;;;;;;4860439;29;20037;-78
2021/04/16 09:32:37;;;;;;;9.35;3.88;;;11.30;44.40;;;;;;4860969;29;20041;-76
2021/04/16 09:35:08;;;;;;;5.70;3.53;;;11.30;46.20;;;;;;4860916;29;20045;-76
2021/04/16 09:37:35;;;;;;;7.50;4.03;;;11.30;44.90;;;;;;4860034;29;20045;-76
2021/04/16 09:40:25;;;;;;;8.70;3.60;;;11.40;47.20;;;;;;4860922;29;20049;-76
2021/04/16 09:43:09;;;;;;;6.30;4.13;;;11.60;43.00;;;;;;4861053;29;20060;-79
2021/04/16 09:45:35;;;;;;;6.43;4.00;;;11.80;40.60;;;;;;4860329;29;20045;-78
2021/04/16 09:48:07;;;;;;;4.68;3.78;;;11.90;42.10;;;;;;4863566;29;20166;-77
2021/04/16 09:50:39;;;;;;;8.75;4.13;;;11.70;43.50;;;;;;4864160;29;20100;-77
2021/04/16 09:53:19;;;;;;;5.75;4.18;;;11.70;42.00;;;;;;4863397;29;20049;-77
2021/04/16 09:55:57;;;;;;;6.78;4.30;;;11.80;44.70;;;;;;4863582;29;20502;-77
2021/04/16 09:58:32;;;;;;;6.78;4.15;;;12.00;42.60;;;;;;4864583;29;20121;-77
2021/04/16 10:01:01;;;;;;;5.15;3.80;;;11.80;44.40;;;;;;4848001;29;20057;-77
2021/04/16 10:03:36;;;;;;;5.25;3.67;;;11.50;44.10;;;;;;4864761;29;20041;-78
2021/04/16 10:06:15;;;;;;;7.90;4.07;;;11.20;44.30;;;;;;4863713;29;20046;-77
2021/04/16 10:08:44;;;;;;;10.65;3.90;;;11.10;47.20;;;;;;4864156;29;20104;-77
2021/04/16 10:11:12;;;;;;;7.28;4.57;;;11.00;48.40;;;;;;4864103;29;20501;-77
2021/04/16 10:13:40;;;;;;;8.55;4.10;;;11.10;48.50;;;;;;4859875;29;20124;-74
2021/04/16 10:16:25;;;;;;;6.90;3.90;;;11.30;48.70;;;;;;4858916;29;20152;-74
2021/04/16 10:18:53;;;;;;;5.10;3.58;;;11.40;46.50;;;;;;4860130;29;20080;-78
2021/04/16 10:21:20;;;;;;;10.77;4.82;;;11.10;43.40;;;;;;4858993;29;20434;-76
2021/04/16 10:24:33;;;;;;;9.70;4.57;;;11.20;45.10;;;;;;4859141;29;20387;-77
2021/04/16 10:44:55;;;;;;;35.10;18.55;;;11.30;47.20;;;;;;4860117;29;20037;-76
2021/04/16 12:40:59;;;;;;;3.20;2.47;;;12.60;29.50;;;;;;4860970;29;20052;-77
2021/04/16 12:43:25;;;;;;;4.20;3.30;;;12.80;29.90;;;;;;4861377;29;20182;-76
2021/04/16 12:45:56;;;;;;;7.13;4.35;;;13.20;31.10;;;;;;4861327;29;20193;-76
2021/04/16 12:48:24;;;;;;;6.18;4.43;;;13.10;35.90;;;;;;4860201;29;20133;-77
2021/04/16 12:50:50;;;;;;;9.27;6.43;;;13.00;38.20;;;;;;4860622;29;20072;-78
2021/04/16 12:53:16;;;;;;;9.13;4.45;;;12.90;40.50;;;;;;4861338;29;20106;-78
2021/04/16 12:55:43;;;;;;;5.78;3.60;;;12.70;41.80;;;;;;4860278;29;20057;-77
2021/04/16 12:58:15;;;;;;;8.48;4.00;;;13.00;39.30;;;;;;4861041;29;20075;-78
2021/04/16 13:00:43;;;;;;;6.03;4.13;;;12.80;37.10;;;;;;4860545;29;20054;-78
2021/04/16 13:03:19;;;;;;;11.23;4.18;;;12.50;37.00;;;;;;4861335;29;20052;-77
2021/04/16 13:05:48;;;;;;;3.47;2.83;;;12.40;37.20;;;;;;4861348;29;20056;-76
2021/04/16 13:08:15;;;;;;;4.85;2.90;;;12.40;32.10;;;;;;4859546;29;20398;-76
2021/04/16 13:10:41;;;;;;;3.03;2.50;;;12.30;30.40;;;;;;4860624;29;20125;-76
2021/04/16 13:13:07;;;;;;;5.60;5.03;;;12.30;30.00;;;;;;4861202;29;20517;-75
2021/04/16 13:15:33;;;;;;;5.30;4.68;;;12.30;29.90;;;;;;4860588;29;20064;-76
2021/04/16 13:18:03;;;;;;;3.67;2.40;;;12.60;30.30;;;;;;4860087;29;20045;-75
2021/04/16 13:20:29;;;;;;;3.20;2.20;;;12.80;30.50;;;;;;4857578;29;20091;-75
2021/04/16 13:22:56;;;;;;;4.13;3.25;;;12.70;29.00;;;;;;4856678;29;20060;-77
2021/04/16 13:25:26;;;;;;;4.85;2.95;;;12.40;29.70;;;;;;4857771;29;20049;-74
2021/04/16 13:27:52;;;;;;;4.38;3.05;;;12.20;29.60;;;;;;4859100;29;20038;-75
2021/04/16 13:30:28;;;;;;;5.00;4.50;;;11.90;29.70;;;;;;4860247;29;20073;-75
2021/04/16 13:32:58;;;;;;;3.83;2.65;;;11.80;29.10;;;;;;4859489;29;20050;-73
2021/04/16 13:35:33;;;;;;;4.10;2.60;;;11.90;29.20;;;;;;4859983;29;20062;-75
2021/04/16 13:38:03;;;;;;;2.65;2.45;;;12.40;30.70;;;;;;4858581;29;20129;-73
2021/04/16 13:40:29;;;;;;;5.25;2.75;;;12.60;29.20;;;;;;4860646;29;20052;-76
2021/04/16 13:42:55;;;;;;;5.10;2.38;;;13.00;27.90;;;;;;4859818;29;20500;-75
2021/04/16 13:45:21;;;;;;;5.47;3.10;;;12.80;27.80;;;;;;4860334;29;20082;-74
2021/04/16 13:47:47;;;;;;;3.10;2.80;;;12.90;28.20;;;;;;4860426;29;20041;-75
2021/04/16 13:50:15;;;;;;;5.13;4.03;;;12.70;27.40;;;;;;4860809;29;20052;-77
2021/04/16 13:52:41;;;;;;;5.82;3.45;;;12.70;29.10;;;;;;4859866;29;20548;-75
2021/04/16 13:55:09;;;;;;;4.35;2.80;;;13.10;27.80;;;;;;4859052;29;20057;-76
2021/04/16 13:57:34;;;;;;;3.60;2.58;;;13.40;29.00;;;;;;4859418;29;20080;-75
2021/04/16 14:00:02;;;;;;;5.28;3.95;;;13.20;27.20;;;;;;4859888;29;20064;-75
2021/04/16 14:02:34;;;;;;;4.60;2.72;;;12.90;28.20;;;;;;4859707;29;20041;-75
2021/04/16 14:05:04;;;;;;;2.85;2.55;;;12.80;28.40;;;;;;4859988;29;20045;-75
2021/04/16 14:07:30;;;;;;;5.00;2.30;;;12.50;27.30;;;;;;4860023;29;20062;-75
2021/04/16 14:09:56;;;;;;;4.25;2.60;;;12.10;27.40;;;;;;4860453;29;20266;-73
2021/04/16 14:12:22;;;;;;;3.10;2.55;;;12.00;28.00;;;;;;4860125;29;20049;-74
2021/04/16 14:14:49;;;;;;;7.15;2.72;;;11.70;27.70;;;;;;4860099;29;20124;-74
2021/04/16 14:17:27;;;;;;;4.32;2.65;;;11.70;28.00;;;;;;4859566;29;20046;-74
2021/04/16 14:20:02;;;;;;;4.63;2.47;;;11.60;27.80;;;;;;4860042;29;20076;-74
2021/04/16 14:22:43;;;;;;;2.75;2.40;;;11.60;27.00;;;;;;4859827;29;20042;-74
2021/04/16 14:25:31;;;;;;;2.88;2.33;;;11.80;27.40;;;;;;4860314;29;20045;-73
2021/04/16 14:28:09;;;;;;;4.30;2.05;;;11.80;26.80;;;;;;4859953;29;20486;-72
2021/04/16 14:30:36;;;;;;;2.58;2.00;;;12.10;26.90;;;;;;4855063;29;20109;-74
2021/04/16 14:33:05;;;;;;;3.80;2.45;;;12.40;25.80;;;;;;4860743;29;20045;-74
2021/04/16 14:35:32;;;;;;;3.90;2.20;;;12.60;24.90;;;;;;4863382;29;20053;-73
2021/04/16 14:37:59;;;;;;;5.13;2.45;;;12.80;26.40;;;;;;4862290;29;20125;-73
2021/04/16 14:40:25;;;;;;;3.17;2.30;;;12.70;25.80;;;;;;4863715;29;20075;-74
2021/04/16 14:42:52;;;;;;;3.42;2.33;;;12.60;26.00;;;;;;4863470;29;20517;-75
2021/04/16 14:45:23;;;;;;;5.63;2.40;;;12.40;26.20;;;;;;4863044;29;20060;-74
2021/04/16 14:47:49;;;;;;;5.45;2.65;;;12.20;26.20;;;;;;4863601;29;20038;-76
2021/04/16 14:50:16;;;;;;;4.15;2.35;;;12.20;26.30;;;;;;4864048;29;20049;-74
2021/04/16 14:52:43;;;;;;;3.95;2.30;;;12.30;29.00;;;;;;4863896;29;20045;-75
2021/04/16 14:55:21;;;;;;;5.10;2.50;;;12.30;27.50;;;;;;4856029;29;20045;-76
2021/04/16 14:57:47;;;;;;;5.13;2.50;;;12.10;27.10;;;;;;4862338;29;20181;-77
2021/04/16 15:00:23;;;;;;;15.35;8.20;;;11.90;27.50;;;;;;4862937;29;20146;-76
2021/04/16 15:02:49;;;;;;;95.95;44.42;;;11.70;28.00;;;;;;4863368;29;20109;-75
2021/04/16 15:05:18;;;;;;;11.68;5.82;;;11.70;27.90;;;;;;4861481;29;20041;-76
2021/04/16 15:08:19;;;;;;;72.22;43.58;;;11.60;26.50;;;;;;4862262;29;20069;-77
2021/04/16 15:10:48;;;;;;;28.40;19.65;;;11.50;25.80;;;;;;4859720;29;20062;-77
2021/04/16 15:13:25;;;;;;;21.83;10.43;;;11.40;26.00;;;;;;4862686;29;20052;-76
2021/04/16 15:15:52;;;;;;;6.68;3.55;;;11.40;26.50;;;;;;4861240;29;20473;-76
2021/04/16 15:18:19;;;;;;;4.63;3.17;;;11.40;26.20;;;;;;4861395;29;20049;-76
2021/04/16 15:20:47;;;;;;;12.63;8.30;;;11.30;26.10;;;;;;4862382;29;20129;-76